Terminal Aerodrome Forecast
Issued by NWS Charleston, SC

Home | Current Version | Previous Version | Text Only | Print | Product List | Glossary On
Versions: 1 2 3 4 5 6 7 8 9 10 11 12 13 14 15 16 17
392
FTUS42 KCHS 230537
TAFSAV
TAF
KSAV 230537Z 2306/2406 09007KT P6SM VCSH OVC050
     FM231000 13007KT P6SM OVC070
     FM231300 15009KT P6SM -SHRA SCT030 OVC060
     FM231600 17011G18KT 6SM SHRA VCTS OVC030CB
      TEMPO 2318/2322 17012G20KT 3SM -TSRA SCT025 OVC040CB
     FM240100 20010KT 6SM SHRA SCT015 OVC030=

USA.gov is the U.S. government's official web portal to all federal, state and local government web resources and services.